createdAt,value
2017-08-23T00:01:45.783Z,14.70
2017-08-23T00:04:13.373Z,14.70
2017-08-23T00:06:41.003Z,14.70
2017-08-23T00:09:08.657Z,14.70
2017-08-23T00:11:37.159Z,14.60
2017-08-23T00:14:04.746Z,14.60
2017-08-23T00:16:32.378Z,14.50
2017-08-23T00:19:00.712Z,14.50
2017-08-23T00:21:28.329Z,14.40
2017-08-23T00:23:56.741Z,14.40
2017-08-23T00:26:24.327Z,14.40
2017-08-23T00:28:52.004Z,14.40
2017-08-23T00:31:19.892Z,14.40
2017-08-23T00:33:47.482Z,14.40
2017-08-23T00:36:15.432Z,14.40
2017-08-23T00:38:43.853Z,14.40
2017-08-23T00:41:11.470Z,14.30
2017-08-23T00:43:39.108Z,14.30
2017-08-23T00:46:06.747Z,14.30
2017-08-23T00:48:34.352Z,14.30
2017-08-23T00:51:02.015Z,14.30
2017-08-23T00:53:29.633Z,14.20
2017-08-23T00:55:57.233Z,14.20
2017-08-23T00:58:24.906Z,14.30
2017-08-23T01:00:52.520Z,14.20
2017-08-23T01:03:20.128Z,14.20
2017-08-23T01:05:47.770Z,14.10
2017-08-23T01:08:15.406Z,14.10
2017-08-23T01:10:43.005Z,14.10
2017-08-23T01:13:10.613Z,14.00
2017-08-23T01:15:38.238Z,14.00
2017-08-23T01:18:05.830Z,14.00
2017-08-23T01:20:33.451Z,14.00
2017-08-23T01:23:01.857Z,14.00
2017-08-23T01:25:29.504Z,13.80
2017-08-23T01:27:57.125Z,13.90
2017-08-23T01:30:24.775Z,13.90
2017-08-23T01:32:52.433Z,13.90
2017-08-23T01:35:20.105Z,13.90
2017-08-23T01:37:47.757Z,14.00
2017-08-23T01:40:15.406Z,14.00
2017-08-23T01:42:43.048Z,14.00
2017-08-23T01:45:10.676Z,14.00
2017-08-23T01:47:39.071Z,14.00
2017-08-23T01:50:06.701Z,13.90
2017-08-23T01:52:34.351Z,13.90
2017-08-23T01:55:01.954Z,13.80
2017-08-23T01:57:29.583Z,13.80
2017-08-23T01:59:57.172Z,13.80
2017-08-23T02:02:24.769Z,13.80
2017-08-23T02:04:52.423Z,13.70
2017-08-23T02:07:20.139Z,13.80
2017-08-23T02:09:47.754Z,13.70
2017-08-23T02:12:15.394Z,13.70
2017-08-23T02:14:43.004Z,13.70
2017-08-23T02:17:10.634Z,13.60
2017-08-23T02:19:38.258Z,13.60
2017-08-23T02:22:05.913Z,13.60
2017-08-23T02:24:33.519Z,13.60
2017-08-23T02:27:01.162Z,13.60
2017-08-23T02:29:28.807Z,13.50
2017-08-23T02:31:56.432Z,13.50
2017-08-23T02:34:24.124Z,13.50
2017-08-23T02:36:51.762Z,13.50
2017-08-23T02:39:19.394Z,13.40
2017-08-23T02:41:47.086Z,13.40
2017-08-23T02:44:14.699Z,13.40
2017-08-23T02:46:42.305Z,13.30
2017-08-23T02:49:09.985Z,13.30
2017-08-23T02:51:37.581Z,13.30
2017-08-23T02:54:05.195Z,13.30
2017-08-23T02:56:32.856Z,13.30
2017-08-23T02:59:00.480Z,13.30
2017-08-23T03:01:28.076Z,13.30
2017-08-23T03:03:56.151Z,13.30
2017-08-23T03:06:24.192Z,13.30
2017-08-23T03:08:51.839Z,13.30
2017-08-23T03:11:20.351Z,13.20
2017-08-23T03:13:47.990Z,13.20
2017-08-23T03:16:15.634Z,13.20
2017-08-23T03:18:43.283Z,13.20
2017-08-23T03:21:10.915Z,13.20
2017-08-23T03:23:38.515Z,13.20
2017-08-23T03:26:06.177Z,13.20
2017-08-23T03:28:33.797Z,13.20
2017-08-23T03:31:01.413Z,13.20
2017-08-23T03:33:29.012Z,13.20
2017-08-23T03:35:56.676Z,13.20
2017-08-23T03:38:24.300Z,13.10
2017-08-23T03:40:51.945Z,13.10
2017-08-23T03:43:20.656Z,13.00
2017-08-23T03:45:48.271Z,13.00
2017-08-23T03:48:15.908Z,13.10
2017-08-23T03:50:43.578Z,13.00
2017-08-23T03:53:11.980Z,13.00
2017-08-23T03:55:40.381Z,13.00
2017-08-23T03:58:08.009Z,13.00
2017-08-23T04:00:35.594Z,13.00
2017-08-23T04:03:03.291Z,13.00
2017-08-23T04:05:31.115Z,13.00
2017-08-23T04:07:58.688Z,13.00
2017-08-23T04:10:26.347Z,12.90
2017-08-23T04:12:53.943Z,12.90
2017-08-23T04:15:21.539Z,12.90
2017-08-23T04:17:49.189Z,12.90
2017-08-23T04:20:17.648Z,12.90
2017-08-23T04:22:45.256Z,12.90
2017-08-23T04:25:12.908Z,12.90
2017-08-23T04:27:40.506Z,12.80
2017-08-23T04:30:08.109Z,12.70
2017-08-23T04:32:35.734Z,12.70
2017-08-23T04:35:04.255Z,12.70
2017-08-23T04:37:31.859Z,12.70
2017-08-23T04:39:59.508Z,12.80
2017-08-23T04:42:27.131Z,12.80
2017-08-23T04:44:54.771Z,12.80
2017-08-23T04:47:22.441Z,12.80
2017-08-23T04:49:50.068Z,12.90
2017-08-23T04:52:17.686Z,12.90
2017-08-23T04:54:45.314Z,13.00
2017-08-23T04:57:12.973Z,13.00
2017-08-23T04:59:40.604Z,13.00
2017-08-23T05:02:08.234Z,13.00
2017-08-23T05:04:35.858Z,13.00
2017-08-23T05:07:03.479Z,13.10
2017-08-23T05:09:31.090Z,13.20
2017-08-23T05:11:58.737Z,13.20
2017-08-23T05:14:26.406Z,13.20
2017-08-23T05:16:54.041Z,13.30
2017-08-23T05:19:21.704Z,13.30
2017-08-23T05:21:49.338Z,13.40
2017-08-23T05:24:16.979Z,13.50
2017-08-23T05:26:44.564Z,13.60
2017-08-23T05:29:12.172Z,13.70
2017-08-23T05:31:39.823Z,13.80
2017-08-23T05:34:07.425Z,13.90
2017-08-23T05:36:35.029Z,14.00
2017-08-23T05:39:02.673Z,14.00
2017-08-23T05:41:30.274Z,14.10
2017-08-23T05:43:58.816Z,14.30
2017-08-23T05:46:26.501Z,14.10
2017-08-23T05:48:54.202Z,14.30
2017-08-23T05:51:22.577Z,14.40
2017-08-23T05:53:50.204Z,14.60
2017-08-23T05:56:17.792Z,14.70
2017-08-23T05:58:45.459Z,14.80
2017-08-23T06:01:13.347Z,14.80
2017-08-23T06:03:41.291Z,14.90
2017-08-23T06:06:08.940Z,15.00
2017-08-23T06:08:36.556Z,15.10
2017-08-23T06:11:04.146Z,15.30
2017-08-23T06:13:31.782Z,15.50
2017-08-23T06:15:59.442Z,15.60
2017-08-23T06:18:27.008Z,16.10
2017-08-23T06:20:54.627Z,16.90
2017-08-23T06:23:22.256Z,17.50
2017-08-23T06:25:49.864Z,18.20
2017-08-23T06:28:17.449Z,18.50
2017-08-23T06:30:45.143Z,18.30
2017-08-23T06:33:12.748Z,17.90
2017-08-23T06:35:41.218Z,17.50
2017-08-23T06:38:08.904Z,17.20
2017-08-23T06:40:36.546Z,16.90
2017-08-23T06:43:04.609Z,16.70
2017-08-23T06:45:32.292Z,16.70
2017-08-23T06:47:59.961Z,16.50
2017-08-23T06:50:28.776Z,16.50
2017-08-23T06:52:56.755Z,16.40
2017-08-23T06:55:24.422Z,16.30
2017-08-23T06:57:52.032Z,16.40
2017-08-23T07:00:19.670Z,16.50
2017-08-23T07:02:47.317Z,16.60
2017-08-23T07:05:14.939Z,16.50
2017-08-23T07:07:42.636Z,16.50
2017-08-23T07:10:10.280Z,16.60
2017-08-23T07:12:37.856Z,16.60
2017-08-23T07:15:05.481Z,16.60
2017-08-23T07:17:33.108Z,16.70
2017-08-23T07:20:00.794Z,16.70
2017-08-23T07:22:28.548Z,16.70
2017-08-23T07:24:57.073Z,16.70
2017-08-23T07:27:24.724Z,16.80
2017-08-23T07:29:53.299Z,16.90
2017-08-23T07:32:20.890Z,17.10
2017-08-23T07:34:48.503Z,17.20
2017-08-23T07:37:16.145Z,17.30
2017-08-23T07:39:44.011Z,17.50
2017-08-23T07:42:11.991Z,17.60
2017-08-23T07:44:39.609Z,17.60
2017-08-23T07:47:07.251Z,17.70
2017-08-23T07:49:34.899Z,17.80
2017-08-23T07:52:02.677Z,17.90
2017-08-23T07:54:30.249Z,17.90
2017-08-23T07:56:57.836Z,17.90
2017-08-23T07:59:25.443Z,17.90
2017-08-23T08:01:53.085Z,18.10
2017-08-23T08:04:21.002Z,18.20
2017-08-23T08:06:48.628Z,18.30
2017-08-23T08:09:16.320Z,18.40
2017-08-23T08:11:43.919Z,18.50
2017-08-23T08:14:11.629Z,18.70
2017-08-23T08:16:39.285Z,18.70
2017-08-23T08:19:06.938Z,18.60
2017-08-23T08:21:34.565Z,18.50
2017-08-23T08:24:02.176Z,18.50
2017-08-23T08:26:29.788Z,18.70
2017-08-23T08:28:58.550Z,18.70
2017-08-23T08:31:26.180Z,18.70
2017-08-23T08:33:53.792Z,18.70
2017-08-23T08:36:21.435Z,18.90
2017-08-23T08:38:49.067Z,19.00
2017-08-23T08:41:16.809Z,19.20
2017-08-23T08:43:45.313Z,19.20
2017-08-23T08:46:12.929Z,19.30
2017-08-23T08:48:40.542Z,19.50
2017-08-23T08:51:08.195Z,19.60
2017-08-23T08:53:35.808Z,19.80
2017-08-23T08:56:03.420Z,20.00
2017-08-23T08:58:31.045Z,20.00
2017-08-23T09:00:58.693Z,20.00
2017-08-23T09:03:27.110Z,20.00
2017-08-23T09:05:54.761Z,19.90
2017-08-23T09:08:22.364Z,19.90
2017-08-23T09:10:50.000Z,20.00
2017-08-23T09:13:17.662Z,20.00
2017-08-23T09:15:45.284Z,20.10
2017-08-23T09:18:12.888Z,20.20
2017-08-23T09:20:40.565Z,20.40
2017-08-23T09:23:08.152Z,20.50
2017-08-23T09:25:35.882Z,20.50
2017-08-23T09:28:03.631Z,20.70
2017-08-23T09:30:31.258Z,20.80
2017-08-23T09:32:58.903Z,21.00
2017-08-23T09:35:26.566Z,21.00
2017-08-23T09:37:55.093Z,21.10
2017-08-23T09:40:22.702Z,21.20
2017-08-23T09:42:50.642Z,21.30
2017-08-23T09:45:19.021Z,21.30
2017-08-23T09:47:48.668Z,21.30
2017-08-23T09:50:16.291Z,21.30
2017-08-23T09:52:46.575Z,21.30
2017-08-23T09:55:14.420Z,21.10
2017-08-23T09:57:42.058Z,21.20
2017-08-23T10:00:09.703Z,21.30
2017-08-23T10:02:37.323Z,21.40
2017-08-23T10:05:05.007Z,21.50
2017-08-23T10:07:32.700Z,21.50
2017-08-23T10:10:00.319Z,21.50
2017-08-23T10:12:28.383Z,21.50
2017-08-23T10:14:55.971Z,21.60
2017-08-23T10:17:23.554Z,21.70
2017-08-23T10:19:51.468Z,21.70
2017-08-23T10:22:19.137Z,21.70
2017-08-23T10:24:46.856Z,21.90
2017-08-23T10:27:14.504Z,21.90
2017-08-23T10:29:42.151Z,22.10
2017-08-23T10:32:09.789Z,22.20
2017-08-23T10:34:37.449Z,22.20
2017-08-23T10:37:05.037Z,22.30
2017-08-23T10:39:32.641Z,22.50
2017-08-23T10:42:00.318Z,22.60
2017-08-23T10:44:27.929Z,22.70
2017-08-23T10:46:55.552Z,22.80
2017-08-23T10:49:23.218Z,22.80
2017-08-23T10:51:50.845Z,22.80
2017-08-23T10:54:18.447Z,22.80
2017-08-23T10:56:46.208Z,22.80
2017-08-23T10:59:13.803Z,22.90
2017-08-23T11:01:42.155Z,22.90
2017-08-23T11:04:09.819Z,22.80
2017-08-23T11:06:37.772Z,22.90
2017-08-23T11:09:05.645Z,22.80
2017-08-23T11:11:33.291Z,22.80
2017-08-23T11:14:00.895Z,23.00
2017-08-23T11:16:28.499Z,23.10
2017-08-23T11:18:56.136Z,23.10
2017-08-23T11:21:23.745Z,23.10
2017-08-23T11:23:51.360Z,23.30
2017-08-23T11:26:19.020Z,23.50
2017-08-23T11:28:46.640Z,23.60
2017-08-23T11:31:14.270Z,23.40
2017-08-23T11:33:42.603Z,23.50
2017-08-23T11:36:10.349Z,23.60
2017-08-23T11:38:37.928Z,23.60
2017-08-23T11:41:05.569Z,23.60
2017-08-23T11:43:33.195Z,23.60
2017-08-23T11:46:00.788Z,23.80
2017-08-23T11:48:28.477Z,23.80
2017-08-23T11:50:56.118Z,23.80
2017-08-23T11:53:23.691Z,23.80
2017-08-23T11:55:51.345Z,23.80
2017-08-23T11:58:19.019Z,23.90
2017-08-23T12:00:46.652Z,23.90
2017-08-23T12:03:14.311Z,24.00
2017-08-23T12:05:41.893Z,24.00
2017-08-23T12:08:09.512Z,24.00
2017-08-23T12:10:37.719Z,24.00
2017-08-23T12:13:05.377Z,24.00
2017-08-23T12:15:32.968Z,23.90
2017-08-23T12:18:00.611Z,24.00
2017-08-23T12:20:28.236Z,23.90
2017-08-23T12:22:55.865Z,23.90
2017-08-23T12:25:24.434Z,24.00
2017-08-23T12:27:52.050Z,24.10
2017-08-23T12:30:19.649Z,24.20
2017-08-23T12:32:47.283Z,24.20
2017-08-23T12:35:14.899Z,24.40
2017-08-23T12:37:42.504Z,24.50
2017-08-23T12:40:10.132Z,24.50
2017-08-23T12:42:37.796Z,24.70
2017-08-23T12:45:05.423Z,24.60
2017-08-23T12:47:33.110Z,24.70
2017-08-23T12:50:01.338Z,24.80
2017-08-23T12:52:28.975Z,25.00
2017-08-23T12:54:56.596Z,25.00
2017-08-23T12:57:24.207Z,24.90
2017-08-23T12:59:51.862Z,24.90
2017-08-23T13:02:19.527Z,25.00
2017-08-23T13:04:47.150Z,25.00
2017-08-23T13:07:14.770Z,25.00
2017-08-23T13:09:42.480Z,25.10
2017-08-23T13:12:10.120Z,25.10
2017-08-23T13:14:37.762Z,25.20
2017-08-23T13:17:06.100Z,25.20
2017-08-23T13:19:33.741Z,25.20
2017-08-23T13:22:01.350Z,25.30
2017-08-23T13:24:29.053Z,25.30
2017-08-23T13:26:56.671Z,25.30
2017-08-23T13:29:24.280Z,25.40
2017-08-23T13:31:51.943Z,25.50
2017-08-23T13:34:20.103Z,25.60
2017-08-23T13:36:47.774Z,25.70
2017-08-23T13:39:15.377Z,25.70
2017-08-23T13:41:43.013Z,25.60
2017-08-23T13:44:10.637Z,25.60
2017-08-23T13:46:38.280Z,25.50
2017-08-23T13:49:05.896Z,25.60
2017-08-23T13:51:33.521Z,25.70
2017-08-23T13:54:01.198Z,25.70
2017-08-23T13:56:28.820Z,25.70
2017-08-23T13:58:56.663Z,25.70
2017-08-23T14:01:24.265Z,25.70
2017-08-23T14:03:51.919Z,25.70
2017-08-23T14:06:19.859Z,25.90
2017-08-23T14:08:47.505Z,25.80
2017-08-23T14:11:15.687Z,25.90
2017-08-23T14:13:43.329Z,26.00
2017-08-23T14:16:11.042Z,26.00
2017-08-23T14:18:39.516Z,26.00
2017-08-23T14:21:08.360Z,26.10
2017-08-23T14:23:35.993Z,26.00
2017-08-23T14:26:03.682Z,26.10
2017-08-23T14:28:31.300Z,26.20
2017-08-23T14:30:59.824Z,26.20
2017-08-23T14:33:27.420Z,26.20
2017-08-23T14:35:54.998Z,26.30
2017-08-23T14:38:22.639Z,26.30
2017-08-23T14:40:51.030Z,26.20
2017-08-23T14:43:18.693Z,26.20
2017-08-23T14:45:46.317Z,26.20
2017-08-23T14:48:13.942Z,26.30
2017-08-23T14:50:41.536Z,26.20
2017-08-23T14:53:09.213Z,26.20
2017-08-23T14:55:36.862Z,26.30
2017-08-23T14:58:04.508Z,26.30
2017-08-23T15:00:32.134Z,26.30
2017-08-23T15:02:59.748Z,26.30
2017-08-23T15:05:27.349Z,26.20
2017-08-23T15:07:54.999Z,26.30
2017-08-23T15:10:22.610Z,26.30
2017-08-23T15:12:50.230Z,26.40
2017-08-23T15:15:17.901Z,26.40
2017-08-23T15:17:45.493Z,26.40
2017-08-23T15:20:13.093Z,26.50
2017-08-23T15:22:40.712Z,26.60
2017-08-23T15:25:08.401Z,26.60
2017-08-23T15:27:35.999Z,26.60
2017-08-23T15:30:03.688Z,26.70
2017-08-23T15:32:31.349Z,26.50
2017-08-23T15:34:58.934Z,26.50
2017-08-23T15:37:26.566Z,26.60
2017-08-23T15:39:54.140Z,26.70
2017-08-23T15:42:21.824Z,26.70
2017-08-23T15:44:49.507Z,26.70
2017-08-23T15:47:18.071Z,26.60
2017-08-23T15:49:45.686Z,26.50
2017-08-23T15:52:14.601Z,26.30
2017-08-23T15:54:42.191Z,26.40
2017-08-23T15:57:09.770Z,26.50
2017-08-23T15:59:37.440Z,26.40
2017-08-23T16:02:05.032Z,26.40
2017-08-23T16:04:32.619Z,26.30
2017-08-23T16:07:00.241Z,26.40
2017-08-23T16:09:28.759Z,26.20
2017-08-23T16:11:56.395Z,26.20
2017-08-23T16:14:24.032Z,26.20
2017-08-23T16:16:51.638Z,26.20
2017-08-23T16:19:19.247Z,26.20
2017-08-23T16:21:46.903Z,26.20
2017-08-23T16:24:15.278Z,26.10
2017-08-23T16:26:42.889Z,26.10
2017-08-23T16:29:10.508Z,26.10
2017-08-23T16:31:38.151Z,26.00
2017-08-23T16:34:05.815Z,25.90
2017-08-23T16:36:33.451Z,25.80
2017-08-23T16:39:01.212Z,25.60
2017-08-23T16:41:28.834Z,25.60
2017-08-23T16:43:56.501Z,25.50
2017-08-23T16:46:24.094Z,25.50
2017-08-23T16:48:51.748Z,25.30
2017-08-23T16:51:20.068Z,25.20
2017-08-23T16:53:48.542Z,25.10
2017-08-23T16:56:16.514Z,25.00
2017-08-23T16:58:44.156Z,24.90
2017-08-23T17:01:11.847Z,24.80
2017-08-23T17:03:39.477Z,24.70
2017-08-23T17:06:07.132Z,24.70
2017-08-23T17:08:35.635Z,24.60
2017-08-23T17:11:04.002Z,24.60
2017-08-23T17:13:31.662Z,24.60
2017-08-23T17:15:59.279Z,24.60
2017-08-23T17:18:26.885Z,24.70
2017-08-23T17:20:54.526Z,24.60
2017-08-23T17:23:23.072Z,24.50
2017-08-23T17:25:50.750Z,24.40
2017-08-23T17:28:19.361Z,24.40
2017-08-23T17:30:46.997Z,24.40
2017-08-23T17:33:14.710Z,24.30
2017-08-23T17:35:42.366Z,24.30
2017-08-23T17:38:11.052Z,24.30
2017-08-23T17:40:38.791Z,24.30
2017-08-23T17:43:06.447Z,24.40
2017-08-23T17:45:34.189Z,24.40
2017-08-23T17:48:02.498Z,24.40
2017-08-23T17:50:30.918Z,24.40
2017-08-23T17:52:59.632Z,24.40
2017-08-23T17:55:27.779Z,24.30
2017-08-23T17:57:55.397Z,24.30
2017-08-23T18:00:22.988Z,24.20
2017-08-23T18:02:50.693Z,24.10
2017-08-23T18:05:18.329Z,23.90
2017-08-23T18:07:45.959Z,23.80
2017-08-23T18:10:13.622Z,23.70
2017-08-23T18:12:41.271Z,23.70
2017-08-23T18:15:08.887Z,23.60
2017-08-23T18:17:36.621Z,23.50
2017-08-23T18:20:04.263Z,23.40
2017-08-23T18:22:31.940Z,23.30
2017-08-23T18:24:59.547Z,23.20
2017-08-23T18:27:27.189Z,23.10
2017-08-23T18:29:54.812Z,23.00
2017-08-23T18:32:22.472Z,23.00
2017-08-23T18:34:50.044Z,22.90
2017-08-23T18:37:18.455Z,22.90
2017-08-23T18:39:46.135Z,22.80
2017-08-23T18:42:13.778Z,22.80
2017-08-23T18:44:41.461Z,22.70
2017-08-23T18:47:10.186Z,22.70
2017-08-23T18:49:37.798Z,22.60
2017-08-23T18:52:05.752Z,22.60
2017-08-23T18:54:33.371Z,22.50
2017-08-23T18:57:00.988Z,22.50
2017-08-23T18:59:28.591Z,22.40
2017-08-23T19:01:56.238Z,22.40
2017-08-23T19:04:23.837Z,22.40
2017-08-23T19:06:52.356Z,22.40
2017-08-23T19:09:19.977Z,22.40
2017-08-23T19:11:47.572Z,22.30
2017-08-23T19:14:15.247Z,22.30
2017-08-23T19:16:43.824Z,22.30
2017-08-23T19:19:11.507Z,22.10
2017-08-23T19:21:39.787Z,22.10
2017-08-23T19:24:07.469Z,22.00
2017-08-23T19:26:35.180Z,22.00
2017-08-23T19:29:02.801Z,22.00
2017-08-23T19:31:30.443Z,22.00
2017-08-23T19:33:58.245Z,22.00
2017-08-23T19:36:25.873Z,22.00
2017-08-23T19:38:53.493Z,22.00
2017-08-23T19:41:21.103Z,22.00
2017-08-23T19:43:48.728Z,22.00
2017-08-23T19:46:17.216Z,22.00
2017-08-23T19:48:44.830Z,22.10
2017-08-23T19:51:12.521Z,22.10
2017-08-23T19:53:40.287Z,22.10
2017-08-23T19:56:07.941Z,22.10
2017-08-23T19:58:35.555Z,22.00
2017-08-23T20:01:03.170Z,21.90
2017-08-23T20:03:30.816Z,21.90
2017-08-23T20:05:58.421Z,21.80
2017-08-23T20:08:26.157Z,21.80
2017-08-23T20:10:53.798Z,21.80
2017-08-23T20:13:21.403Z,21.70
2017-08-23T20:15:49.066Z,21.70
2017-08-23T20:18:16.727Z,21.70
2017-08-23T20:20:44.362Z,21.60
2017-08-23T20:23:12.028Z,21.60
2017-08-23T20:25:39.668Z,21.50
2017-08-23T20:28:07.300Z,21.50
2017-08-23T20:30:34.945Z,21.40
2017-08-23T20:33:02.530Z,21.30
2017-08-23T20:35:30.196Z,21.20
2017-08-23T20:37:57.925Z,21.10
2017-08-23T20:40:25.561Z,21.10
2017-08-23T20:42:53.185Z,21.10
2017-08-23T20:45:20.853Z,21.10
2017-08-23T20:47:49.356Z,21.10
2017-08-23T20:50:16.936Z,21.10
2017-08-23T20:52:44.679Z,21.00
2017-08-23T20:55:12.289Z,21.00
2017-08-23T20:57:45.642Z,20.90
2017-08-23T21:00:13.827Z,20.90
2017-08-23T21:02:41.431Z,20.80
2017-08-23T21:05:09.095Z,20.70
2017-08-23T21:07:36.707Z,20.70
2017-08-23T21:10:04.341Z,20.70
2017-08-23T21:12:32.020Z,20.60
2017-08-23T21:14:59.608Z,20.60
2017-08-23T21:17:28.874Z,20.60
2017-08-23T21:19:56.743Z,20.60
2017-08-23T21:22:24.368Z,20.50
2017-08-23T21:24:51.978Z,20.40
2017-08-23T21:27:19.663Z,20.40
2017-08-23T21:29:48.220Z,20.40
2017-08-23T21:32:15.878Z,20.40
2017-08-23T21:34:43.486Z,20.30
2017-08-23T21:37:11.101Z,20.30
2017-08-23T21:39:38.720Z,20.30
2017-08-23T21:42:07.184Z,20.20
2017-08-23T21:44:35.695Z,20.20
2017-08-23T21:47:04.291Z,20.20
2017-08-23T21:49:31.919Z,20.20
2017-08-23T21:51:59.559Z,20.10
2017-08-23T21:54:27.216Z,20.10
2017-08-23T21:56:54.863Z,20.10
2017-08-23T21:59:22.483Z,20.00
2017-08-23T22:01:50.190Z,20.00
2017-08-23T22:04:17.823Z,20.00
2017-08-23T22:06:47.372Z,19.90
2017-08-23T22:09:14.976Z,19.90
2017-08-23T22:11:42.596Z,19.80
2017-08-23T22:14:10.189Z,19.90
2017-08-23T22:16:37.829Z,19.90
2017-08-23T22:19:05.399Z,19.90
2017-08-23T22:21:33.009Z,19.90
2017-08-23T22:24:00.615Z,19.90
2017-08-23T22:26:28.190Z,19.90
2017-08-23T22:28:56.524Z,19.90
2017-08-23T22:31:24.100Z,19.90
2017-08-23T22:33:51.683Z,19.90
2017-08-23T22:36:19.388Z,20.00
2017-08-23T22:38:46.990Z,20.00
2017-08-23T22:41:14.625Z,20.00
2017-08-23T22:43:42.248Z,20.00
2017-08-23T22:46:09.874Z,20.00
2017-08-23T22:48:37.473Z,20.00
2017-08-23T22:51:05.103Z,20.00
2017-08-23T22:53:32.687Z,20.00
2017-08-23T22:56:00.328Z,20.00
2017-08-23T22:58:27.949Z,20.00
2017-08-23T23:00:56.312Z,20.00
2017-08-23T23:03:23.886Z,20.00
2017-08-23T23:05:51.531Z,19.90
2017-08-23T23:08:19.170Z,19.90
2017-08-23T23:10:46.727Z,19.90
2017-08-23T23:13:14.364Z,19.90
2017-08-23T23:15:41.997Z,19.90
2017-08-23T23:18:09.572Z,19.90
2017-08-23T23:20:37.403Z,19.80
2017-08-23T23:23:04.992Z,19.80
2017-08-23T23:25:32.565Z,19.80
2017-08-23T23:28:01.001Z,19.80
2017-08-23T23:30:28.605Z,19.80
2017-08-23T23:32:56.217Z,19.80
2017-08-23T23:35:23.852Z,19.80
2017-08-23T23:37:51.472Z,19.80
2017-08-23T23:40:19.080Z,19.80
2017-08-23T23:42:46.700Z,19.80
2017-08-23T23:45:14.276Z,19.70
2017-08-23T23:47:41.877Z,19.70
2017-08-23T23:50:10.399Z,19.60
2017-08-23T23:52:38.753Z,19.60
2017-08-23T23:55:06.303Z,19.60
2017-08-23T23:57:33.893Z,19.60
